Nearby METAR Reports

 

CXKE - Kemptville, Ontario, Canada
Distance from station: ESE 39km
Updated: 18/01/2018 02:00

 Wind from WSW
Wind: WSW 7 km/h
Temperature: -6°C
Wind Chill: -10°C
Dew Point: -8°C
Humidity: 86%
2018/01/18 07:00 CXKE 180700Z AUTO 25004KT M06/M08 RMK AO1 SOG 09 5001 SLP162 T10571075
CYOW - Ottawa Intl, Ontario, Canada
Distance from station: NE 43km
Updated: 18/01/2018 02:00
Overcast
Overcast
 Wind from SSW
Wind: SSW 24 km/h, Gust: 37 km/h
Temperature: -7°C
Wind Chill: -15°C
Dew Point: -10°C
Humidity: 79%
Barometer: 1014.2 hPa
Clouds: Overcast
Visibility: 24 km
Cloud details: Overcast 1036 m
2018/01/18 07:00 CYOW 180700Z 21013G20KT 15SM OVC034 M07/M10 A2995 RMK SC8 SLP150
 
CYND - Gatineau Airport, Quebec, Canada
Distance from station: NE 64km
Updated: 17/01/2018 21:00
NOT Current
Overcast
Overcast
 Wind from SSW
Wind: SSW 11 km/h
Temperature: -7°C
Wind Chill: -12°C
Dew Point: -11°C
Humidity: 73%
Barometer: 1016.9 hPa
Clouds: Overcast
Visibility: 24 km
Cloud details: Overcast 3658 m
2018/01/18 02:00 CYND 180200Z 21006KT 150V230 15SM OVC120 M07/M11 A3003 RMK AC8 LAST STFD OBS/NEXT 181200 UTC SLP174
CYGK - Kingston, Ontario, CA
Distance from station: S 80km
Updated: 17/01/2018 23:00
NOT Current
Light snow, Low drifting, Snow, Overcast
Light snow, Low drifting, Snow, Overcast
 Wind from SW
Wind: SW 24 km/h, Gust: 37 km/h
Temperature: -4°C
Wind Chill: -11°C
Dew Point: -8°C
Humidity: 74%
Barometer: 1018.3 hPa
Summary: Light snow, Low drifting, Snow
Clouds: Overcast
Visibility: 24 km
Cloud details: Overcast 640 m
2018/01/18 04:00 CYGK 180400Z 23013G20KT 15SM -SN DRSN OVC021 M04/M08 A3007 RMK SC8 LAST STFD OBS/NEXT 181100 UTC SLP189